Time;durP1;ratioP1;P1;durP2;ratioP2;P2;SDS_P1;SDS_P2;PMS_P1;PMS_P2;Temp;Humidity;BMP_temperature;BMP_pressure;BME280_temperature;BME280_humidity;BME280_pressure;Samples;Min_cycle;Max_cycle;Signal;HPM_P1;HPM_P2
2020/12/16 00:00:11;;;;;;;37.80;14.23;;;6.90;99.90;;;;;;5026842;28;20381;-61
2020/12/16 00:02:38;;;;;;;34.05;13.80;;;6.90;99.90;;;;;;5025593;28;20045;-61
2020/12/16 00:05:05;;;;;;;37.55;14.63;;;6.80;99.90;;;;;;5026470;28;20444;-60
2020/12/16 00:07:30;;;;;;;50.58;15.82;;;6.90;99.90;;;;;;5023736;28;20061;-61
2020/12/16 00:09:56;;;;;;;36.30;12.73;;;6.90;99.90;;;;;;5025244;28;20091;-61
2020/12/16 00:12:22;;;;;;;45.80;14.82;;;6.90;99.90;;;;;;5021205;28;20038;-60
2020/12/16 00:14:47;;;;;;;45.28;14.40;;;6.90;99.90;;;;;;5027572;28;20030;-63
2020/12/16 00:17:13;;;;;;;39.85;14.75;;;6.90;99.90;;;;;;5019365;28;20441;-61
2020/12/16 00:19:40;;;;;;;33.42;13.93;;;6.90;99.90;;;;;;5027248;28;20041;-60
2020/12/16 00:22:06;;;;;;;42.13;12.98;;;6.80;99.90;;;;;;5024500;28;20030;-61
2020/12/16 00:24:32;;;;;;;38.85;12.85;;;6.80;99.90;;;;;;5026994;28;20044;-61
2020/12/16 00:26:57;;;;;;;33.75;14.15;;;6.80;99.90;;;;;;5024318;28;20032;-60
2020/12/16 00:29:23;;;;;;;39.80;13.30;;;6.70;99.90;;;;;;5024712;28;20118;-61
2020/12/16 00:31:49;;;;;;;38.30;13.90;;;6.70;99.90;;;;;;5027009;28;20633;-61
2020/12/16 00:34:14;;;;;;;37.55;13.35;;;6.70;99.90;;;;;;5024661;28;20030;-61
2020/12/16 00:36:41;;;;;;;47.40;12.07;;;6.60;99.90;;;;;;5025717;28;20022;-61
2020/12/16 00:39:09;;;;;;;66.47;14.60;;;6.50;99.90;;;;;;5024078;28;20113;-61
2020/12/16 00:41:35;;;;;;;59.42;12.73;;;6.50;99.90;;;;;;5027329;28;20503;-62
2020/12/16 00:44:02;;;;;;;42.72;11.00;;;6.40;99.90;;;;;;5023783;28;20109;-61
2020/12/16 00:46:28;;;;;;;40.08;11.55;;;6.40;99.90;;;;;;5023673;28;20057;-61
2020/12/16 00:48:54;;;;;;;84.95;11.93;;;6.30;99.90;;;;;;5025616;28;20092;-60
2020/12/16 00:51:20;;;;;;;60.15;12.30;;;6.30;99.90;;;;;;5024758;28;20057;-61
2020/12/16 00:53:45;;;;;;;58.55;11.02;;;6.20;99.90;;;;;;5025482;28;20021;-61
2020/12/16 00:56:11;;;;;;;54.03;11.57;;;6.20;99.90;;;;;;5023236;28;20100;-62
2020/12/16 00:58:36;;;;;;;87.47;12.73;;;6.20;99.90;;;;;;5027010;28;20556;-60
2020/12/16 01:01:04;;;;;;;34.45;11.00;;;6.20;99.90;;;;;;5023022;28;20041;-61
2020/12/16 01:03:30;;;;;;;38.33;10.32;;;6.30;99.90;;;;;;5020828;28;20038;-61
2020/12/16 01:05:55;;;;;;;41.67;10.07;;;6.30;99.90;;;;;;5020065;28;20037;-60
2020/12/16 01:08:21;;;;;;;52.85;12.10;;;6.30;99.90;;;;;;5020817;28;20038;-60
2020/12/16 01:10:46;;;;;;;40.83;12.07;;;6.30;99.90;;;;;;5020819;28;20038;-60
2020/12/16 01:13:12;;;;;;;54.05;12.98;;;6.40;99.90;;;;;;5019268;28;20499;-60
2020/12/16 01:15:37;;;;;;;49.05;12.95;;;6.40;99.90;;;;;;5022567;28;20030;-61
2020/12/16 01:18:03;;;;;;;48.10;12.98;;;6.40;99.90;;;;;;5022311;28;20026;-60
2020/12/16 01:20:29;;;;;;;51.65;12.68;;;6.40;99.90;;;;;;5019296;28;20132;-62
2020/12/16 01:22:54;;;;;;;42.78;10.48;;;6.50;99.90;;;;;;5021130;28;20033;-60
2020/12/16 01:25:21;;;;;;;43.88;11.45;;;6.50;99.90;;;;;;5020447;28;20434;-60
2020/12/16 01:27:59;;;;;;;40.50;11.65;;;6.50;99.90;;;;;;5019587;28;20104;-62
2020/12/16 01:30:25;;;;;;;37.85;10.23;;;6.50;99.90;;;;;;5021141;28;20485;-60
2020/12/16 01:32:52;;;;;;;33.50;10.57;;;6.40;99.90;;;;;;5019278;28;20026;-60
2020/12/16 01:35:18;;;;;;;25.15;10.52;;;6.40;99.90;;;;;;5021927;28;20053;-61
2020/12/16 01:37:44;;;;;;;30.35;10.18;;;6.40;99.90;;;;;;5019692;28;20470;-61
2020/12/16 01:40:10;;;;;;;31.52;11.73;;;6.40;99.90;;;;;;5022781;28;20029;-61
2020/12/16 01:42:37;;;;;;;37.15;11.57;;;6.40;99.90;;;;;;5018827;28;20068;-61
2020/12/16 01:45:07;;;;;;;37.35;14.07;;;6.40;99.90;;;;;;5023505;28;20030;-61
2020/12/16 01:47:33;;;;;;;20.05;8.95;;;6.40;99.90;;;;;;5021377;28;20144;-62
2020/12/16 01:49:59;;;;;;;31.02;10.68;;;6.40;99.90;;;;;;5019984;28;20124;-61
2020/12/16 01:52:26;;;;;;;36.47;12.77;;;6.40;99.90;;;;;;5020442;28;20116;-60
2020/12/16 01:54:54;;;;;;;45.33;12.45;;;6.40;99.90;;;;;;5020859;28;20041;-63
2020/12/16 01:57:22;;;;;;;39.50;11.70;;;6.40;99.90;;;;;;5019995;28;20029;-61
2020/12/16 01:59:50;;;;;;;36.35;11.82;;;6.40;99.90;;;;;;5019575;28;20037;-61
2020/12/16 02:02:18;;;;;;;82.93;13.13;;;6.40;99.90;;;;;;5019468;28;20042;-64
2020/12/16 02:04:46;;;;;;;32.70;11.02;;;6.40;99.90;;;;;;5021201;28;20034;-61
2020/12/16 02:07:13;;;;;;;33.88;10.57;;;6.40;99.90;;;;;;5019205;28;20045;-60
2020/12/16 02:09:40;;;;;;;27.45;10.55;;;6.30;99.90;;;;;;5021480;28;20394;-60
2020/12/16 02:12:12;;;;;;;51.40;12.15;;;6.30;99.90;;;;;;5018823;28;20026;-60
2020/12/16 02:14:38;;;;;;;38.17;10.82;;;6.30;99.90;;;;;;5018184;28;20848;-62
2020/12/16 02:17:06;;;;;;;48.13;11.07;;;6.20;99.90;;;;;;5018669;28;20445;-60
2020/12/16 02:19:41;;;;;;;36.25;11.90;;;6.20;99.90;;;;;;5021485;28;20094;-61
2020/12/16 02:22:09;;;;;;;37.92;10.10;;;6.20;99.90;;;;;;5018695;28;20113;-60
2020/12/16 02:24:39;;;;;;;51.38;10.77;;;6.20;99.90;;;;;;5018403;28;20034;-61
2020/12/16 02:27:05;;;;;;;34.80;10.05;;;6.10;99.90;;;;;;5016949;28;20052;-61
2020/12/16 02:29:32;;;;;;;49.28;10.60;;;6.10;99.90;;;;;;5021060;28;20452;-62
2020/12/16 02:31:59;;;;;;;65.80;9.93;;;6.10;99.90;;;;;;5019132;28;20057;-62
2020/12/16 02:34:24;;;;;;;51.10;10.15;;;6.10;99.90;;;;;;5020368;28;20034;-61
2020/12/16 02:36:50;;;;;;;86.53;10.93;;;6.10;99.90;;;;;;5020131;28;20025;-60
2020/12/16 02:39:15;;;;;;;57.15;11.55;;;6.00;99.90;;;;;;5019471;28;20033;-62
2020/12/16 02:41:42;;;;;;;73.45;13.30;;;6.00;99.90;;;;;;5020673;28;20498;-62
2020/12/16 02:44:08;;;;;;;34.05;9.88;;;6.00;99.90;;;;;;5018278;28;20692;-61
2020/12/16 02:46:34;;;;;;;43.78;9.30;;;6.00;99.90;;;;;;5021455;28;20033;-61
2020/12/16 02:49:02;;;;;;;60.92;10.85;;;6.00;99.90;;;;;;5016683;28;20044;-62
2020/12/16 02:51:28;;;;;;;34.42;8.27;;;5.90;99.90;;;;;;5020727;28;20061;-61
2020/12/16 02:53:53;;;;;;;29.65;8.48;;;6.00;99.90;;;;;;5019087;28;20130;-64
2020/12/16 02:56:19;;;;;;;44.70;8.65;;;5.90;99.90;;;;;;5019884;28;20560;-61
2020/12/16 02:58:45;;;;;;;23.55;7.85;;;5.90;99.90;;;;;;5019828;28;20034;-60
2020/12/16 03:01:11;;;;;;;27.15;8.27;;;5.90;99.90;;;;;;5018654;28;20517;-60
2020/12/16 03:03:37;;;;;;;44.38;8.75;;;5.90;99.90;;;;;;5020931;28;20029;-60
2020/12/16 03:06:02;;;;;;;35.08;8.15;;;5.80;99.90;;;;;;5018010;28;20049;-62
2020/12/16 03:08:28;;;;;;;35.10;9.57;;;5.80;99.90;;;;;;5020517;28;20045;-63
2020/12/16 03:10:53;;;;;;;60.10;9.88;;;5.80;99.90;;;;;;5021385;28;20068;-61
2020/12/16 03:13:19;;;;;;;42.35;9.80;;;5.80;99.90;;;;;;5019927;28;20049;-61
2020/12/16 03:15:44;;;;;;;38.65;9.48;;;5.80;99.90;;;;;;5020234;28;20073;-61
2020/12/16 03:18:10;;;;;;;29.63;9.48;;;5.80;99.90;;;;;;5024556;28;20033;-61
2020/12/16 03:20:35;;;;;;;32.72;9.60;;;5.80;99.90;;;;;;5021766;28;20080;-61
2020/12/16 03:23:01;;;;;;;36.70;10.00;;;5.80;99.90;;;;;;5025174;28;20494;-62
2020/12/16 03:25:26;;;;;;;25.80;9.18;;;5.80;99.90;;;;;;5022192;28;20109;-61
2020/12/16 03:27:52;;;;;;;32.40;9.82;;;5.80;99.90;;;;;;5023439;28;20134;-60
2020/12/16 03:30:17;;;;;;;30.40;9.65;;;5.80;99.90;;;;;;5022152;28;20120;-62
2020/12/16 03:32:43;;;;;;;32.90;9.50;;;5.80;99.90;;;;;;5022713;28;20398;-61
2020/12/16 03:35:08;;;;;;;25.45;9.38;;;5.80;99.90;;;;;;5024469;28;20033;-61
2020/12/16 03:37:34;;;;;;;22.88;8.10;;;5.70;99.90;;;;;;5021098;28;20057;-63
2020/12/16 03:39:59;;;;;;;26.50;10.02;;;5.70;99.90;;;;;;5024742;28;20030;-61
2020/12/16 03:42:25;;;;;;;32.10;9.75;;;5.80;99.90;;;;;;5022213;28;20089;-60
2020/12/16 03:44:50;;;;;;;37.45;8.93;;;5.80;99.90;;;;;;5023081;28;20501;-61
2020/12/16 03:47:16;;;;;;;26.85;9.55;;;5.80;99.90;;;;;;5023153;28;20398;-61
2020/12/16 03:49:42;;;;;;;30.45;8.50;;;5.80;99.90;;;;;;5021838;28;20402;-61
2020/12/16 03:52:07;;;;;;;33.33;10.10;;;5.80;99.90;;;;;;5024341;28;20033;-61
2020/12/16 03:54:33;;;;;;;29.08;9.20;;;5.80;99.90;;;;;;5021269;28;20156;-61
2020/12/16 03:56:58;;;;;;;47.58;9.93;;;5.70;99.90;;;;;;5024132;28;20029;-60
2020/12/16 03:59:24;;;;;;;36.80;9.48;;;5.80;99.90;;;;;;5020532;28;20040;-60
2020/12/16 04:01:51;;;;;;;44.78;11.60;;;5.80;99.90;;;;;;5020499;28;20478;-62
2020/12/16 04:04:17;;;;;;;54.00;10.98;;;5.80;99.90;;;;;;5023356;28;20029;-61
2020/12/16 04:06:42;;;;;;;44.03;10.73;;;5.70;99.90;;;;;;5022623;28;20029;-61
2020/12/16 04:09:08;;;;;;;34.28;10.15;;;5.70;99.90;;;;;;5021589;28;20037;-60
2020/12/16 04:11:33;;;;;;;47.75;11.38;;;5.70;99.90;;;;;;5023965;28;20273;-61
2020/12/16 04:13:59;;;;;;;44.03;11.32;;;5.70;99.90;;;;;;5020345;28;20545;-61
2020/12/16 04:16:24;;;;;;;69.47;10.88;;;5.70;99.90;;;;;;5024123;28;20128;-60
2020/12/16 04:18:51;;;;;;;52.88;11.43;;;5.70;99.90;;;;;;5023587;28;20092;-60
2020/12/16 04:21:19;;;;;;;59.75;11.80;;;5.70;99.90;;;;;;5022168;28;20052;-62
2020/12/16 04:23:45;;;;;;;61.15;11.02;;;5.70;99.90;;;;;;5020788;28;20149;-61
2020/12/16 04:26:11;;;;;;;53.10;12.05;;;5.70;99.90;;;;;;5022155;28;20053;-60
2020/12/16 04:28:37;;;;;;;60.13;10.68;;;5.70;99.90;;;;;;5021240;28;20461;-61
2020/12/16 04:31:05;;;;;;;50.72;11.27;;;5.70;99.90;;;;;;5023204;28;20117;-60
2020/12/16 04:33:31;;;;;;;37.17;11.32;;;5.70;99.90;;;;;;5020803;28;20038;-61
2020/12/16 04:35:57;;;;;;;50.67;11.70;;;5.70;99.90;;;;;;5023380;28;20060;-62
2020/12/16 04:38:23;;;;;;;26.73;9.98;;;5.70;99.90;;;;;;5020811;28;20089;-61
2020/12/16 04:40:48;;;;;;;36.00;10.35;;;5.70;99.90;;;;;;5022430;28;20108;-60
2020/12/16 04:43:19;;;;;;;55.88;10.85;;;5.80;99.90;;;;;;5022160;28;20030;-60
2020/12/16 04:45:45;;;;;;;48.58;10.60;;;5.80;99.90;;;;;;5021106;28;20046;-60
2020/12/16 04:48:12;;;;;;;50.28;11.75;;;5.80;99.90;;;;;;5036566;23;20095;-66
2020/12/16 04:50:39;;;;;;;41.55;10.75;;;5.80;99.90;;;;;;5020684;28;20409;-67
2020/12/16 04:53:07;;;;;;;59.95;12.25;;;5.80;99.90;;;;;;5018349;28;20441;-66
2020/12/16 04:55:33;;;;;;;49.83;11.10;;;5.80;99.90;;;;;;5023420;28;20040;-67
2020/12/16 04:58:01;;;;;;;102.25;12.80;;;5.80;99.90;;;;;;5020006;28;20069;-66
2020/12/16 05:00:28;;;;;;;45.40;9.90;;;5.80;99.90;;;;;;5019179;28;20041;-66
2020/12/16 05:03:03;;;;;;;35.92;10.50;;;5.80;99.90;;;;;;5022962;28;20026;-66
2020/12/16 05:05:29;;;;;;;31.02;9.65;;;5.70;99.90;;;;;;5020545;28;20375;-67
2020/12/16 05:07:55;;;;;;;50.60;10.30;;;5.80;99.90;;;;;;5018022;28;20033;-66
2020/12/16 05:10:35;;;;;;;43.30;9.45;;;5.70;99.90;;;;;;5020518;28;20034;-66
2020/12/16 05:13:08;;;;;;;28.38;9.50;;;5.80;99.90;;;;;;5020066;28;20041;-67
2020/12/16 05:15:35;;;;;;;31.23;9.15;;;5.80;99.90;;;;;;5021447;28;20116;-66
2020/12/16 05:18:08;;;;;;;34.25;9.48;;;5.80;99.90;;;;;;5019883;28;20038;-67
2020/12/16 05:20:35;;;;;;;31.65;9.63;;;5.80;99.90;;;;;;5022567;28;20067;-67
2020/12/16 05:23:04;;;;;;;32.58;11.07;;;5.70;99.90;;;;;;5020162;28;20030;-66
2020/12/16 05:25:29;;;;;;;31.58;10.55;;;5.70;99.90;;;;;;5021724;28;20051;-67
2020/12/16 05:27:55;;;;;;;49.08;12.75;;;5.70;99.90;;;;;;5020163;28;20034;-67
2020/12/16 05:30:21;;;;;;;51.78;9.35;;;5.70;99.90;;;;;;5022557;28;20026;-67
2020/12/16 05:32:47;;;;;;;30.45;9.85;;;5.70;99.90;;;;;;5022122;28;20053;-67
2020/12/16 05:35:31;;;;;;;54.70;10.57;;;5.80;99.90;;;;;;5021461;28;20025;-66
2020/12/16 05:38:02;;;;;;;36.78;9.27;;;5.70;99.90;;;;;;5020041;28;20040;-67
2020/12/16 05:40:30;;;;;;;33.10;9.10;;;5.70;99.90;;;;;;5023603;28;20037;-67
2020/12/16 05:42:56;;;;;;;39.95;9.48;;;5.70;99.90;;;;;;5019583;28;20117;-66
2020/12/16 05:45:25;;;;;;;71.43;10.63;;;5.70;99.90;;;;;;5020311;28;20048;-66
2020/12/16 05:48:16;;;;;;;23.40;9.68;;;5.80;99.90;;;;;;5020676;28;20497;-67
2020/12/16 05:50:52;;;;;;;23.95;9.27;;;5.80;99.90;;;;;;5020959;28;20414;-67
2020/12/16 05:53:24;;;;;;;18.77;9.05;;;5.90;99.90;;;;;;5021550;28;20446;-68
2020/12/16 05:55:51;;;;;;;27.75;9.30;;;5.90;99.90;;;;;;5018365;28;20399;-64
2020/12/16 05:58:19;;;;;;;27.35;10.48;;;5.80;99.90;;;;;;5023611;28;20214;-65
2020/12/16 06:00:53;;;;;;;28.45;9.27;;;5.90;99.90;;;;;;5019972;28;20053;-67
2020/12/16 06:03:23;;;;;;;29.95;10.18;;;5.90;99.90;;;;;;5018148;28;20038;-66
2020/12/16 06:06:10;;;;;;;30.17;10.20;;;5.90;99.90;;;;;;5026298;28;20399;-67
2020/12/16 06:08:37;;;;;;;29.10;9.80;;;5.90;99.90;;;;;;5025212;28;20048;-66
2020/12/16 06:11:04;;;;;;;21.08;9.35;;;5.90;99.90;;;;;;5024766;28;20087;-66
2020/12/16 06:13:29;;;;;;;25.02;9.90;;;5.90;99.90;;;;;;5021031;28;20668;-67
2020/12/16 06:15:57;;;;;;;33.33;10.68;;;5.90;99.90;;;;;;5020821;28;20029;-67
2020/12/16 06:18:25;;;;;;;22.23;9.48;;;6.00;99.90;;;;;;5019034;28;20041;-67
2020/12/16 06:20:52;;;;;;;23.48;10.45;;;6.00;99.90;;;;;;5020048;28;20103;-67
2020/12/16 06:23:39;;;;;;;21.65;9.82;;;6.00;99.90;;;;;;5019172;28;20525;-66
2020/12/16 06:26:07;;;;;;;27.33;9.15;;;6.00;99.90;;;;;;5020546;28;20075;-67
2020/12/16 06:28:33;;;;;;;19.23;8.63;;;6.00;99.90;;;;;;5019707;28;20041;-66
2020/12/16 06:31:23;;;;;;;22.45;9.77;;;6.00;99.90;;;;;;5019418;28;20044;-67
2020/12/16 06:34:00;;;;;;;27.33;9.65;;;6.00;99.90;;;;;;5021363;28;20172;-67
2020/12/16 06:36:34;;;;;;;23.23;9.55;;;5.90;99.90;;;;;;5021227;28;20034;-67
2020/12/16 06:39:02;;;;;;;26.55;9.77;;;6.00;99.90;;;;;;5018600;28;20398;-66
2020/12/16 06:41:30;;;;;;;25.65;9.43;;;6.00;99.90;;;;;;5018706;28;20547;-66
2020/12/16 06:44:07;;;;;;;26.33;9.60;;;6.00;99.90;;;;;;5020958;28;20034;-67
2020/12/16 06:46:40;;;;;;;25.33;9.50;;;6.00;99.90;;;;;;5020037;28;20037;-67
2020/12/16 06:49:22;;;;;;;27.20;9.73;;;6.00;99.90;;;;;;5017771;28;20082;-66
2020/12/16 06:51:49;;;;;;;31.48;8.45;;;6.00;99.90;;;;;;5019791;28;20041;-67
2020/12/16 06:54:17;;;;;;;17.65;8.70;;;6.00;99.90;;;;;;5018381;28;20036;-67
2020/12/16 06:56:47;;;;;;;45.08;8.95;;;6.00;99.90;;;;;;5020986;28;20065;-67
2020/12/16 06:59:14;;;;;;;24.63;8.95;;;5.90;99.90;;;;;;5018317;28;20087;-66
2020/12/16 07:01:40;;;;;;;36.75;10.63;;;5.90;99.90;;;;;;5020316;28;20119;-67
2020/12/16 07:04:34;;;;;;;25.15;8.57;;;5.90;99.90;;;;;;5019612;28;20038;-67
2020/12/16 07:06:59;;;;;;;23.55;8.23;;;5.90;99.90;;;;;;5020231;28;20621;-67
2020/12/16 07:09:31;;;;;;;21.40;8.48;;;5.80;99.90;;;;;;5018342;28;20507;-67
2020/12/16 07:11:57;;;;;;;38.42;9.77;;;5.80;99.90;;;;;;5019605;28;20041;-67
2020/12/16 07:14:25;;;;;;;25.08;9.13;;;5.80;99.90;;;;;;5016633;28;20053;-66
2020/12/16 07:16:51;;;;;;;34.05;9.05;;;5.80;99.90;;;;;;5021210;28;20385;-67
2020/12/16 07:19:27;;;;;;;18.08;8.90;;;5.80;99.90;;;;;;5017151;28;20038;-60
2020/12/16 07:21:55;;;;;;;29.00;9.40;;;5.80;99.90;;;;;;5021480;28;20125;-73
2020/12/16 07:24:22;;;;;;;32.85;9.95;;;5.80;99.90;;;;;;5017490;28;20037;-66
2020/12/16 07:26:55;;;;;;;32.95;8.95;;;5.80;99.90;;;;;;5020066;28;20112;-67
2020/12/16 07:29:37;;;;;;;32.08;9.13;;;5.80;99.90;;;;;;5017078;28;20497;-66
2020/12/16 07:32:13;;;;;;;25.33;9.23;;;5.80;99.90;;;;;;5018911;28;20034;-66
2020/12/16 07:34:46;;;;;;;28.05;8.52;;;5.80;99.90;;;;;;5018858;28;20173;-67
2020/12/16 07:37:13;;;;;;;25.40;8.77;;;5.70;99.90;;;;;;5017352;28;20128;-66
2020/12/16 07:39:48;;;;;;;24.23;9.38;;;5.70;99.90;;;;;;5020010;28;20034;-67
2020/12/16 07:42:34;;;;;;;27.75;8.75;;;5.80;99.90;;;;;;5017442;28;20040;-67
2020/12/16 07:45:03;;;;;;;24.95;8.43;;;5.70;99.90;;;;;;5019726;28;20708;-69
2020/12/16 07:47:28;;;;;;;18.02;8.60;;;5.70;99.90;;;;;;5021506;28;20046;-66
2020/12/16 07:49:55;;;;;;;24.73;10.20;;;5.70;99.90;;;;;;5022008;28;20053;-67
2020/12/16 07:52:25;;;;;;;20.85;9.27;;;5.70;99.90;;;;;;5027843;28;20994;-67
2020/12/16 07:54:51;;;;;;;27.33;8.40;;;5.60;99.90;;;;;;5028429;28;20050;-66
2020/12/16 07:57:16;;;;;;;26.33;9.73;;;5.70;99.90;;;;;;5027315;28;20079;-67
2020/12/16 07:59:42;;;;;;;24.08;8.85;;;5.70;99.90;;;;;;5020405;28;20596;-67
2020/12/16 08:02:13;;;;;;;22.27;8.95;;;5.70;99.90;;;;;;5024656;28;20037;-66
2020/12/16 08:04:40;;;;;;;23.35;8.00;;;5.60;99.90;;;;;;5027425;28;20030;-67
2020/12/16 08:07:14;;;;;;;25.00;8.52;;;5.60;99.90;;;;;;5027403;28;20490;-66
2020/12/16 08:09:57;;;;;;;19.60;8.55;;;5.60;99.90;;;;;;5024800;28;20457;-66
2020/12/16 08:12:24;;;;;;;19.45;8.05;;;5.60;99.90;;;;;;5024698;28;20042;-66
2020/12/16 08:14:50;;;;;;;24.67;7.90;;;5.60;99.90;;;;;;5025448;28;20025;-67
2020/12/16 08:17:16;;;;;;;16.35;7.45;;;5.60;99.90;;;;;;5023434;28;20034;-67
2020/12/16 08:19:42;;;;;;;19.85;8.13;;;5.70;99.90;;;;;;5022672;28;20409;-66
2020/12/16 08:22:15;;;;;;;25.40;8.88;;;5.70;99.90;;;;;;5020827;28;20030;-67
2020/12/16 08:24:56;;;;;;;21.25;8.65;;;5.60;99.90;;;;;;5022582;28;20029;-67
2020/12/16 08:27:22;;;;;;;;;;;5.70;99.90;;;;;;5023226;28;20050;-66
2020/12/16 08:29:49;;;;;;;26.55;8.98;;;5.60;99.90;;;;;;5023737;28;20302;-66
2020/12/16 08:32:22;;;;;;;26.48;9.18;;;5.60;99.90;;;;;;5023614;28;20037;-67
2020/12/16 08:34:51;;;;;;;22.48;8.57;;;5.70;99.90;;;;;;5024551;28;20029;-67
2020/12/16 08:37:19;;;;;;;17.70;8.45;;;5.70;99.90;;;;;;5027140;28;20092;-66
2020/12/16 08:39:47;;;;;;;20.30;7.95;;;5.70;99.90;;;;;;5023628;28;20034;-66
2020/12/16 08:42:22;;;;;;;17.95;8.35;;;5.70;99.90;;;;;;5023461;28;20029;-66
2020/12/16 08:44:48;;;;;;;20.60;7.80;;;5.70;99.90;;;;;;5024306;28;20042;-66
2020/12/16 08:47:24;;;;;;;18.13;7.28;;;5.80;99.90;;;;;;5027246;28;20502;-66
2020/12/16 08:49:51;;;;;;;15.65;7.38;;;5.80;99.90;;;;;;5024137;28;20099;-66
2020/12/16 08:52:17;;;;;;;17.65;8.18;;;5.70;99.90;;;;;;5026585;28;20390;-67
2020/12/16 08:54:44;;;;;;;15.77;7.93;;;5.80;99.90;;;;;;5025663;28;20485;-66
2020/12/16 08:57:10;;;;;;;15.63;8.05;;;5.80;99.90;;;;;;5027103;28;20642;-66
2020/12/16 08:59:37;;;;;;;17.63;8.40;;;5.80;99.90;;;;;;5023471;28;20030;-67
2020/12/16 09:02:02;;;;;;;15.75;7.85;;;5.80;99.90;;;;;;5025434;28;20109;-66
2020/12/16 09:04:29;;;;;;;17.45;8.25;;;5.80;99.90;;;;;;5024177;28;20125;-67
2020/12/16 09:07:09;;;;;;;18.10;8.40;;;5.90;99.90;;;;;;5026770;28;20033;-66
2020/12/16 09:09:37;;;;;;;18.42;8.52;;;5.90;99.90;;;;;;5022229;28;20037;-67
2020/12/16 09:12:10;;;;;;;15.77;7.85;;;5.90;99.90;;;;;;5025721;28;20482;-67
2020/12/16 09:14:35;;;;;;;20.25;7.90;;;6.00;99.90;;;;;;5024258;28;20449;-67
2020/12/16 09:17:07;;;;;;;20.25;8.45;;;6.00;99.90;;;;;;5026478;28;20496;-67
2020/12/16 09:19:34;;;;;;;15.60;6.68;;;6.10;99.90;;;;;;5023210;28;20061;-67
2020/12/16 09:22:00;;;;;;;15.15;7.63;;;6.10;99.90;;;;;;5023547;28;20092;-67
2020/12/16 09:24:26;;;;;;;12.55;7.05;;;6.30;99.90;;;;;;5024916;28;20026;-67
2020/12/16 09:26:55;;;;;;;14.63;6.10;;;6.30;99.90;;;;;;5026121;28;20497;-67
2020/12/16 09:29:23;;;;;;;12.98;6.57;;;6.40;99.90;;;;;;5024240;28;20406;-67
2020/12/16 09:31:51;;;;;;;11.90;5.60;;;6.50;99.90;;;;;;5025243;28;20040;-67
2020/12/16 09:34:17;;;;;;;14.52;6.25;;;6.60;99.90;;;;;;5025615;28;20049;-66
2020/12/16 09:36:43;;;;;;;9.50;4.85;;;6.70;99.90;;;;;;5025419;28;20601;-67
2020/12/16 09:39:10;;;;;;;11.85;5.72;;;6.70;99.90;;;;;;5022898;28;20033;-67
2020/12/16 09:41:49;;;;;;;10.38;5.55;;;6.80;99.90;;;;;;5022641;28;20029;-67
2020/12/16 09:44:29;;;;;;;12.32;6.07;;;6.80;99.90;;;;;;5020996;28;20053;-67
2020/12/16 09:47:16;;;;;;;8.55;3.95;;;6.90;99.90;;;;;;5023799;28;20083;-67
2020/12/16 09:49:45;;;;;;;11.85;5.38;;;7.00;99.90;;;;;;5021817;28;20061;-67
2020/12/16 09:52:25;;;;;;;11.10;5.05;;;7.10;99.90;;;;;;5024265;28;20414;-67
2020/12/16 09:54:50;;;;;;;11.70;4.95;;;7.20;99.90;;;;;;5021576;28;20036;-66
2020/12/16 09:57:20;;;;;;;9.45;4.90;;;7.30;99.90;;;;;;5023505;28;20550;-67
2020/12/16 09:59:45;;;;;;;8.45;4.60;;;7.30;99.90;;;;;;5021732;28;20022;-66
2020/12/16 10:02:11;;;;;;;8.63;4.65;;;7.40;99.90;;;;;;5024966;28;20390;-66
2020/12/16 10:04:37;;;;;;;7.60;4.70;;;7.40;99.90;;;;;;5025091;28;20030;-67
2020/12/16 10:07:02;;;;;;;8.65;4.28;;;7.50;99.90;;;;;;5023249;28;20112;-67
2020/12/16 10:09:28;;;;;;;7.97;4.10;;;7.50;99.90;;;;;;5022627;28;20037;-67
2020/12/16 10:11:53;;;;;;;13.13;4.75;;;7.60;99.90;;;;;;5022241;28;20030;-66
2020/12/16 10:14:19;;;;;;;8.88;4.28;;;7.60;99.90;;;;;;5023643;28;20042;-67
2020/12/16 10:16:49;;;;;;;6.43;3.60;;;7.70;99.90;;;;;;5024284;28;20033;-68
2020/12/16 10:19:16;;;;;;;10.13;4.75;;;7.80;99.90;;;;;;5024061;28;20025;-67
2020/12/16 10:21:45;;;;;;;10.68;4.70;;;7.70;99.90;;;;;;5019648;28;20132;-66
2020/12/16 10:24:11;;;;;;;6.82;4.38;;;7.80;99.90;;;;;;5024106;28;20037;-68
2020/12/16 10:26:36;;;;;;;5.75;3.88;;;7.90;99.90;;;;;;5023340;28;20034;-67
2020/12/16 10:29:02;;;;;;;9.65;3.88;;;7.90;99.90;;;;;;5024271;28;20037;-68
2020/12/16 10:31:27;;;;;;;7.53;3.70;;;7.90;99.90;;;;;;5022200;28;20056;-68
2020/12/16 10:33:53;;;;;;;10.45;4.25;;;8.00;99.90;;;;;;5023974;28;20030;-68
2020/12/16 10:36:19;;;;;;;7.40;4.10;;;8.00;99.90;;;;;;5020908;28;20390;-66
2020/12/16 10:38:44;;;;;;;8.48;4.00;;;8.10;99.90;;;;;;5019196;28;20037;-68
2020/12/16 10:41:12;;;;;;;7.35;4.70;;;8.10;99.90;;;;;;5020110;28;20037;-67
2020/12/16 10:43:38;;;;;;;8.57;3.97;;;8.10;99.90;;;;;;5020940;28;20032;-67
2020/12/16 10:46:06;;;;;;;6.72;3.92;;;8.20;99.90;;;;;;5022494;28;20041;-67
2020/12/16 10:48:32;;;;;;;8.52;4.75;;;8.20;99.90;;;;;;5036890;23;20589;-61
2020/12/16 10:50:58;;;;;;;7.13;4.07;;;8.30;99.90;;;;;;5019630;28;20079;-60
2020/12/16 10:53:25;;;;;;;8.65;4.15;;;8.30;99.90;;;;;;5017075;28;20053;-61
2020/12/16 10:55:50;;;;;;;6.28;3.75;;;8.40;99.90;;;;;;5020747;28;20486;-61
2020/12/16 10:58:16;;;;;;;5.10;3.35;;;8.60;99.90;;;;;;5022003;28;20036;-60
2020/12/16 11:00:41;;;;;;;11.13;3.42;;;8.80;99.90;;;;;;5021491;28;20428;-61
2020/12/16 11:03:07;;;;;;;8.27;4.05;;;8.80;99.90;;;;;;5023283;28;20030;-62
2020/12/16 11:05:35;;;;;;;6.43;3.17;;;8.90;99.90;;;;;;5018598;28;20030;-60
2020/12/16 11:08:00;;;;;;;7.10;3.03;;;8.90;99.90;;;;;;5021412;28;20042;-61
2020/12/16 11:10:26;;;;;;;6.28;3.33;;;8.80;99.90;;;;;;5020478;28;20033;-60
2020/12/16 11:12:51;;;;;;;6.22;3.67;;;8.80;99.90;;;;;;5021516;28;20041;-60
2020/12/16 11:15:17;;;;;;;8.38;3.75;;;8.90;99.90;;;;;;5018514;28;20040;-60
2020/12/16 11:17:42;;;;;;;8.07;3.65;;;9.10;99.90;;;;;;5019176;28;20120;-61
2020/12/16 11:20:08;;;;;;;9.07;4.40;;;9.20;99.90;;;;;;5021511;28;20276;-61
2020/12/16 11:22:37;;;;;;;7.85;3.42;;;9.20;99.90;;;;;;5020040;28;20030;-60
2020/12/16 11:25:04;;;;;;;9.90;3.70;;;9.20;99.90;;;;;;5019167;28;20316;-60
2020/12/16 11:27:30;;;;;;;6.43;3.58;;;9.20;99.90;;;;;;5018564;28;20441;-60
2020/12/16 11:29:55;;;;;;;5.60;3.50;;;9.10;99.90;;;;;;5019768;28;20029;-60
2020/12/16 11:32:21;;;;;;;6.38;3.70;;;9.10;99.90;;;;;;5019830;28;20037;-60
2020/12/16 11:34:46;;;;;;;6.90;3.75;;;9.00;99.90;;;;;;5021295;28;20506;-61
2020/12/16 11:37:14;;;;;;;7.75;3.67;;;9.00;99.90;;;;;;5021870;28;20088;-60
2020/12/16 11:39:40;;;;;;;8.48;4.32;;;9.00;99.90;;;;;;5022847;28;20033;-60
2020/12/16 11:42:05;;;;;;;6.90;3.78;;;9.00;99.90;;;;;;5023761;28;20297;-61
2020/12/16 11:44:31;;;;;;;7.18;3.90;;;9.00;99.90;;;;;;5024421;28;20029;-61
2020/12/16 11:46:58;;;;;;;7.00;4.13;;;9.00;99.90;;;;;;5020062;28;20064;-61
2020/12/16 11:49:23;;;;;;;9.23;3.45;;;9.10;99.90;;;;;;5018510;28;20038;-61
2020/12/16 11:51:50;;;;;;;8.40;4.10;;;9.10;99.90;;;;;;5024512;28;20030;-62
2020/12/16 11:54:16;;;;;;;10.82;3.45;;;9.10;99.90;;;;;;5021197;28;20030;-61
2020/12/16 11:56:42;;;;;;;6.47;3.65;;;9.20;99.90;;;;;;5024675;28;20038;-63
2020/12/16 11:59:08;;;;;;;6.90;3.67;;;9.20;99.90;;;;;;5019062;28;20030;-61
2020/12/16 12:01:33;;;;;;;8.18;3.63;;;9.10;99.90;;;;;;5020294;28;20037;-60
2020/12/16 12:03:59;;;;;;;7.85;4.15;;;9.20;99.90;;;;;;5021560;28;20043;-60
2020/12/16 12:06:25;;;;;;;7.03;3.83;;;9.20;99.90;;;;;;5020928;28;20429;-60
2020/12/16 12:08:51;;;;;;;7.35;3.80;;;9.20;99.90;;;;;;5024252;28;20038;-61
2020/12/16 12:11:19;;;;;;;8.65;3.20;;;9.20;99.90;;;;;;5022455;28;20120;-60
2020/12/16 12:13:46;;;;;;;9.65;4.15;;;9.20;99.90;;;;;;5020666;28;20038;-60
2020/12/16 12:16:13;;;;;;;7.28;3.70;;;9.20;99.90;;;;;;5025773;28;20090;-60
2020/12/16 12:18:39;;;;;;;7.15;3.90;;;9.30;99.90;;;;;;5026008;28;20068;-60
2020/12/16 12:21:06;;;;;;;6.18;3.53;;;9.30;99.90;;;;;;5022089;28;20390;-61
2020/12/16 12:23:31;;;;;;;7.90;4.00;;;9.30;99.90;;;;;;5026033;28;20030;-60
2020/12/16 12:25:57;;;;;;;6.38;3.85;;;9.30;99.90;;;;;;5025525;28;20451;-61
2020/12/16 12:28:23;;;;;;;7.30;3.65;;;9.20;99.90;;;;;;5024531;28;20045;-60
2020/12/16 12:30:49;;;;;;;7.75;4.07;;;9.20;99.90;;;;;;5025586;28;20183;-61
2020/12/16 12:33:14;;;;;;;6.65;3.50;;;9.30;99.90;;;;;;5020050;28;20026;-61
2020/12/16 12:35:40;;;;;;;8.15;4.25;;;9.30;99.90;;;;;;5025078;28;20029;-60
2020/12/16 12:38:05;;;;;;;8.35;4.00;;;9.30;99.90;;;;;;5024373;28;20034;-63
2020/12/16 12:40:31;;;;;;;7.00;4.13;;;9.30;99.90;;;;;;5025778;28;20102;-60
2020/12/16 12:42:57;;;;;;;9.45;4.60;;;9.30;99.90;;;;;;5022193;28;20034;-60
2020/12/16 12:45:22;;;;;;;8.65;4.40;;;9.30;99.90;;;;;;5021109;28;20034;-62
2020/12/16 12:47:48;;;;;;;7.20;4.65;;;9.30;99.90;;;;;;5021565;28;20041;-60